Außentemperatur Tagesdurchschnitt Außenfeuchte Tagesdurchschnitt Taupunkt Tagesdurchschnitt Windchill Tagesdurchschnitt Windgeschwindigkeit Tagesdurchschnitt Gesamtregen Mindesttemperatur Höchsttemperatur Höchste Windgeschwindigkeit  Tägliche Niederschlagsmenge 
                         
                         
max min mittel °C % °C °C km/h mm/m² °C °C km/h mm/m²
1.1.14 1017,5 1013,0 1016,0 -2,5 79,5 -5,5 -2,6 1,3 0,0 -4,7 -0,3 16,2 0,0
2.1.14 1012,8 1008,4 1010,1 0,5 77,7 -2,9 -0,0 2,8 0,2 -1,5 3,6 26,6 0,2
3.1.14 1014,1 1012,1 1013,3 3,8 75,7 -0,3 2,9 3,5 0,2 1,0 8,2 36,7 0,0
4.1.14 1016,8 1003,3 1010,8 5,2 69,5 -0,1 4,5 3,7 0,6 2,7 8,2 24,4 0,4
5.1.14 1016,2 1002,6 1008,7 3,7 85,2 1,4 3,2 2,6 1,7 1,4 5,2 23,7 1,1
6.1.14 1017,0 1014,8 1015,9 2,1 72,2 -2,4 1,9 1,6 1,7 -0,7 5,2 35,2 0,0
7.1.14 1020,6 1014,5 1018,7 7,1 66,2 1,0 6,9 1,8 3,1 3,1 11,9 26,6 1,4
8.1.14 1022,3 1019,6 1021,1 7,7 73,2 3,0 6,6 4,6 4,8 2,4 12,5 43,9 1,7
9.1.14 1021,7 1008,4 1014,4 7,9 68,8 1,9 6,1 7,3 8,2 2,4 12,7 47,1 3,4
10.1.14 1019,7 1010,5 1016,6 3,0 70,1 -2,0 0,7 7,6 8,4 -0,1 5,8 33,8 0,2
11.1.14 1020,7 1016,3 1018,1 0,8 78,5 -2,5 -0,0 3,3 8,9 -3,3 3,9 36,3 0,5
12.1.14 1025,6 1020,7 1023,4 -0,7 72,4 -5,1 -1,0 2,7 8,9 -5,5 3,7 19,8 0,0
13.1.14 1020,6 1013,1 1016,2 -1,5 84,9 -3,7 -1,6 0,5 11,4 -5,9 2,2 15,8 2,5
14.1.14 1013,1 1006,7 1009,2 0,8 91,6 -0,3 0,8 0,3 15,3 0,1 2,4 7,5 3,9
15.1.14 1013,2 1009,6 1012,1 0,6 89,1 -1,0 0,4 1,8 21,1 -1,3 2,4 29,5 5,8
16.1.14 1011,4 1005,1 1008,4 1,4 80,4 -1,6 1,3 0,6 21,1 -0,8 2,9 11,8 0,0
17.1.14 1009,1 1006,2 1007,3 2,1 84,8 -0,2 2,0 0,8 21,1 0,8 4,1 20,1 0,0
18.1.14 1009,5 1005,8 1007,9 2,0 86,4 -0,1 1,1 3,9 21,1 0,7 3,3 28,0 0,0
19.1.14 1005,8 1002,8 1003,7 3,8 82,0 1,0 2,6 5,3 21,1 0,8 5,9 33,1 0,0
20.1.14 1007,5 1002,2 1004,3 0,3 88,1 -1,4 0,0 2,9 21,5 -1,9 4,2 15,8 0,4
21.1.14 1013,0 1007,6 1010,3 -1,5 85,1 -3,6 -1,5 1,4 21,5 -2,2 -0,5 10,0 0,0
22.1.14 1016,1 1012,7 1013,9 -0,2 85,8 -2,2 -0,2 0,2 22,8 -1,2 1,1 7,5 1,3
23.1.14 1017,4 1013,5 1015,9 -0,5 85,4 -2,6 -0,6 0,7 22,8 -1,6 1,0 16,9 0,0
24.1.14 1018,8 1011,9 1014,5 -1,8 85,6 -3,9 -2,0 1,7 22,8 -5,6 0,7 15,4 0,0
25.1.14 1020,2 1013,6 1018,6 -8,0 77,9 -11,1 -8,0 1,2 22,8 -9,6 -6,3 15,8 0,0
26.1.14 1013,7 1003,0 1008,5 -5,2 77,3 -8,6 -5,4 1,7 22,8 -7,9 0,1 19,4 0,0
27.1.14 1003,5 996,9 1000,2 -1,1 80,1 -4,0 -1,2 1,4 23,0 -4,7 3,6 22,3 0,2
28.1.14 1005,6 1003,3 1004,1 -2,8 80,8 -5,6 -3,1 1,3 23,0 -5,7 -0,9 18,0 0,0
29.1.14 1007,9 1003,2 1004,7 -3,8 75,0 -7,5 -4,4 2,8 23,0 -4,4 -2,5 25,2 0,0
30.1.14 1011,5 1007,9 1010,0 -4,6 70,0 -9,2 -6,6 6,1 23,0 -5,3 -3,8 37,8 0,0
31.1.14 1012,6 1008,1 1010,3 -0,5 79,1 -3,7 -1,1 2,9 23,0 -3,8 1,4 34,2 0,0
1.2.14 1011,4 1006,8 1008,5 -0,4 83,5 -2,8 -0,9 2,9 23,0 -1,6 0,4 29,5 0,0
2.2.14 1019,6 1009,5 1014,5 -0,2 82,7 -2,7 -0,3 0,7 24,5 -1,4 1,0 18,7 1,5
3.2.14 1019,7 1011,5 1015,7 -1,5 79,2 -4,6 -2,9 5,0 24,5 -3,2 -0,3 39,9 0,0
4.2.14 1015,1 1012,1 1013,7 -3,0 71,2 -7,5 -3,5 2,7 24,5 -4,4 -0,2 15,1 0,0
5.2.14 1012,3 1003,9 1006,8 -3,0 77,6 -6,3 -4,2 4,5 24,5 -4,2 0,4 33,8 0,0
6.2.14 1011,5 1005,8 1009,4 2,8 67,9 -2,8 1,9 3,8 24,7 -2,5 9,1 29,1 0,2
7.2.14 1007,0 1001,0 1003,1 5,5 53,2 -3,4 4,5 5,0 24,7 2,1 12,3 43,5 0,0
8.2.14 1008,2 998,1 1003,5 3,8 57,8 -3,9 2,9 4,3 24,7 0,5 6,5 36,0 0,0
9.2.14 1004,2 997,9 1000,9 3,5 60,6 -3,6 1,2 7,7 25,0 0,5 6,5 38,8 0,3
10.2.14 1005,1 997,2 1001,4 0,9 66,5 -4,9 -0,3 4,8 25,4 -2,5 4,2 33,1 0,4
11.2.14 1008,2 998,7 1005,2 2,4 61,3 -4,4 1,0 5,5 25,4 1,1 5,7 36,0 0,0
12.2.14 1012,6 1008,0 1010,3 -0,3 64,8 -6,2 -0,8 2,5 25,4 -4,9 4,2 25,2 0,0
13.2.14 1008,6 995,8 1002,1 2,8 69,6 -2,3 1,4 5,4 34,4 -0,6 6,9 47,8 9,0
14.2.14 1013,3 1000,6 1009,3 2,6 64,2 -3,8 1,1 5,7 34,9 0,1 7,0 31,6 0,5
15.2.14 1008,9 1004,7 1006,6 4,3 59,8 -3,2 4,0 2,8 38,7 2,5 6,8 26,2 3,8
16.2.14 1015,0 1008,5 1011,9 4,1 72,0 -0,5 2,5 6,5 38,7 2,6 5,7 41,0 0,0
17.2.14 1019,9 1015,1 1017,2 3,8 66,2 -2,3 3,6 1,7 38,7 -2,4 10,5 20,5 0,0
18.2.14 1020,7 1014,7 1018,2 1,0 71,1 -3,8 0,9 0,8 38,9 -3,3 6,4 16,9 0,2
19.2.14 1017,0 1013,8 1015,0 3,1 77,8 -0,4 2,8 1,9 39,4 0,4 6,2 11,8 0,5
20.2.14 1017,0 1011,9 1015,3 4,8 74,0 0,4 4,4 2,1 39,4 1,8 8,5 20,1 0,0
21.2.14 1013,6 1008,9 1010,6 4,1 76,9 0,4 3,7 2,5 43,1 2,2 9,1 31,6 3,7
22.2.14 1021,1 1013,5 1017,0 3,1 63,4 -3,6 2,6 2,4 43,1 -1,6 8,8 32,7 0,0
23.2.14 1025,2 1021,2 1023,8 2,1 62,5 -4,9 1,9 1,3 43,1 -4,2 11,1 37,0 0,0
24.2.14 1024,1 1018,2 1020,7 3,8 51,5 -6,9 3,5 2,2 43,1 -3,4 12,8 24,4 0,0
25.2.14 1018,3 1015,3 1016,7 5,3 53,3 -4,4 5,1 2,0 43,1 -0,9 14,9 10,8 0,0
26.2.14 1020,0 1016,4 1017,9 3,2 68,2 -2,3 2,9 2,9 43,1 -0,1 10,1 24,4 0,0
27.2.14 1020,8 1013,7 1018,2 2,6 77,4 -1,0 2,3 1,9 43,1 -1,9 9,0 25,2 0,0
28.2.14 1013,9 1004,7 1008,3 3,0 85,6 0,7 2,8 1,8 44,4 1,3 6,3 27,3 1,3
1.3.14 1005,4 1003,1 1004,4 2,2 69,4 -2,9 2,0 1,9 44,4 -0,7 7,4 23,4 0,0
2.3.14 1006,9 1003,5 1005,1 2,3 69,7 -2,9 2,3 0,5 44,4 -3,2 11,2 16,9 0,0
3.3.14 1003,4 996,2 998,1 4,7 57,8 -4,2 4,3 2,7 44,4 -1,7 13,1 36,0 0,0
4.3.14 1009,8 999,3 1003,8 2,8 76,8 -0,9 2,8 0,3 45,9 -1,2 8,4 10,8 1,5
5.3.14 1025,2 1009,8 1017,0 4,7 69,8 -1,1 4,4 2,1 45,9 0,4 13,7 19,0 0,0
6.3.14 1030,7 1025,1 1028,8 3,5 67,1 -2,2 3,4 1,3 45,9 -2,6 8,6 13,6 0,0
7.3.14 1030,1 1025,7 1027,7 3,3 58,9 -5,1 3,3 1,0 45,9 -5,2 14,3 12,6 0,0
8.3.14 1034,7 1028,2 1032,5 5,6 61,6 -2,0 5,6 1,0 45,9 -3,2 16,2 13,4 0,0
9.3.14 1034,7 1031,5 1033,2 7,1 53,2 -3,9 7,0 1,4 45,9 -1,9 18,5 16,5 0,0
10.3.14 1031,7 1025,2 1027,4 7,2 41,1 -6,6 7,1 1,6 45,9 -1,6 16,7 28,9 0,0
11.3.14 1033,4 1026,2 1029,6 6,5 52,4 -4,3 6,1 2,9 45,9 -3,5 18,4 32,7 0,0
12.3.14 1034,0 1031,5 1032,8 6,2 59,9 -2,2 6,0 2,1 45,9 -3,2 18,8 20,1 0,0
13.3.14 1031,9 1027,2 1029,6 7,6 50,2 -4,5 7,5 0,9 45,9 -3,1 20,4 9,0 0,0
14.3.14 1028,5 1021,0 1026,0 7,0 49,5 -5,2 6,9 1,1 45,9 -3,6 20,7 16,5 0,0
15.3.14 1020,7 1015,0 1017,3 5,8 60,6 -1,3 3,1 9,4 50,8 0,8 8,2 32,0 4,9
16.3.14 1018,7 1013,7 1016,1 6,9 82,5 4,0 1,7 15,0 51,0 4,1 9,4 42,8 0,2
17.3.14 1020,9 1018,5 1019,6 8,3 69,2 2,8 5,8 9,4 51,0 4,1 11,7 27,3 0,0
18.3.14 1020,7 1013,8 1017,2 7,2 73,9 2,7 6,6 3,6 52,1 2,2 10,8 32,7 1,1
19.3.14 1025,2 1014,8 1020,9 7,2 75,7 3,1 4,2 10,0 53,8 5,4 10,2 33,4 1,7
20.3.14 1025,2 1016,4 1021,9 11,9 47,0 -1,3 11,4 3,5 53,8 2,7 20,3 36,3 0,0
21.3.14 1016,4 1011,3 1013,9 15,0 33,9 -1,5 13,9 7,2 53,8 9,9 20,8 54,0 0,0
22.3.14 1013,2 1006,3 1008,8 9,7 71,5 4,6 8,9 4,5 57,2 6,1 13,9 31,3 3,4
23.3.14 1009,4 1006,3 1007,6 4,2 79,5 0,9 4,0 2,2 62,9 0,9 7,1 19,8 5,7
24.3.14 1013,2 1008,8 1011,3 2,2 82,3 -0,7 2,0 1,6 66,9 -1,8 8,4 18,0 4,0
25.3.14 1013,5 1010,2 1011,7 2,1 82,1 -0,8 2,0 1,0 66,9 -2,1 9,4 21,5 0,0
26.3.14 1017,1 1011,4 1014,3 2,6 66,5 -3,9 2,0 3,0 66,9 -4,1 9,7 33,8 0,0
27.3.14 1016,9 1013,8 1015,4 7,1 50,8 -2,9 6,2 4,4 66,9 2,2 13,1 33,4 0,0
28.3.14 1023,3 1016,7 1019,7 6,2 62,7 -0,7 6,0 1,6 66,9 0,0 13,5 18,0 0,0
29.3.14 1024,5 1021,4 1023,1 9,2 59,0 0,6 8,9 2,4 66,9 -0,3 17,7 25,9 0,0
30.3.14 1021,4 1017,0 1019,2 11,8 52,0 0,1 11,8 0,8 66,9 0,7 22,9 18,3 0,0
31.3.14 1018,0 1015,6 1016,6 9,2 61,4 1,2 9,1 1,3 66,9 1,8 19,6 21,2 0,0
1.4.14 1016,4 1013,7 1015,2 10,8 55,3 0,0 10,7 1,3 66,9 0,5 23,1 13,3 0,0
2.4.14 1014,4 1009,7 1012,2 12,7 51,0 1,3 12,6 0,9 66,9 5,2 21,4 24,8 0,0
3.4.14 1009,7 1007,9 1008,8 13,9 48,5 0,9 13,7 2,5 66,9 3,9 24,0 27,0 0,0
4.4.14 1012,6 1009,4 1010,5 13,3 58,2 4,4 13,0 2,8 66,9 5,2 22,0 22,3 0,0
5.4.14 1018,3 1012,6 1014,9 11,8 74,2 6,8 11,8 0,9 66,9 6,8 20,1 13,6 0,0
6.4.14 1021,2 1018,2 1019,8 13,0 62,3 4,6 12,7 2,5 66,9 7,8 19,8 23,7 0,0
7.4.14 1021,9 1016,8 1020,0 13,6 55,0 3,5 13,4 2,5 66,9 3,8 23,1 24,4 0,0
8.4.14 1020,7 1014,1 1016,3 13,1 46,0 0,9 10,9 10,0 67,1 7,3 17,1 43,2 0,2
9.4.14 1024,2 1020,7 1022,7 6,5 52,7 -2,8 3,3 10,7 69,3 2,6 10,3 33,8 2,2
10.4.14 1022,4 1020,1 1021,4 8,2 72,8 3,3 6,7 6,7 72,3 5,2 13,8 25,2 3,0
11.4.14 1022,5 1018,9 1020,6 8,5 74,3 3,7 8,5 0,4 72,3 5,0 15,1 11,5 0,0
12.4.14 1020,0 1016,8 1018,7 9,8 72,4 4,4 9,7 0,5 74,7 5,0 17,5 11,7 2,4
13.4.14 1019,6 1016,6 1018,1 11,4 55,6 1,8 10,7 4,3 74,7 6,4 15,8 31,6 0,0
14.4.14 1018,0 1013,1 1015,0 6,2 67,0 0,4 3,9 8,7 81,7 1,4 11,4 42,4 7,0
15.4.14 1025,2 1017,5 1021,1 2,6 69,9 -2,5 0,5 7,7 84,2 0,6 6,1 25,2 2,5
16.4.14 1030,5 1025,2 1028,7 4,7 66,4 -2,1 4,1 3,5 85,5 -0,2 10,4 23,7 1,3
17.4.14 1030,2 1016,3 1024,7 5,2 45,7 -8,1 4,8 2,5 85,5 -4,5 14,0 30,2 0,0
18.4.14 1016,4 1010,6 1012,9 4,1 68,7 -1,4 4,0 1,5 95,9 0,6 10,4 23,0 10,4
19.4.14 1017,3 1014,2 1015,8 5,3 81,8 2,3 4,5 4,3 95,9 -2,5 12,2 16,9 0,0
20.4.14 1014,2 1010,1 1011,5 11,4 65,0 4,3 11,0 3,4 100,0 6,5 17,2 38,8 4,1
21.4.14 1010,7 1007,1 1008,3 8,7 72,0 3,6 8,4 2,4 100,0 2,4 14,1 25,9 0,0
22.4.14 1018,4 1008,7 1013,5 12,8 63,9 4,9 12,4 2,9 100,8 5,1 20,3 27,0 0,8
23.4.14 1022,1 1018,4 1020,8 13,4 54,3 2,2 13,4 2,1 100,8 2,1 23,1 24,2 0,0
24.4.14 1022,3 1019,1 1021,1 13,5 59,3 4,7 13,1 3,6 100,8 3,5 22,2 27,0 0,0
25.4.14 1019,3 1013,4 1015,8 13,3 65,9 5,9 13,1 2,5 102,4 4,2 22,5 30,6 1,6
26.4.14 1015,1 1010,7 1013,4 14,2 65,8 6,6 14,1 1,4 102,4 5,7 24,2 25,5 0,0
27.4.14 1010,7 1008,1 1009,0 13,5 68,3 7,4 13,3 2,2 102,4 8,2 18,8 26,6 0,0
28.4.14 1013,2 1009,7 1011,0 13,1 79,9 9,6 13,0 2,2 103,2 10,8 20,2 21,2 0,8
29.4.14 1014,4 1012,4 1013,3 14,5 70,8 8,0 14,4 2,0 103,2 10,3 22,1 15,8 0,0
30.4.14 1013,2 1010,8 1012,0 13,6 58,3 4,0 13,6 1,2 103,2 5,4 21,8 18,0 0,0
1.5.14 1014,2 1011,7 1012,9 12,9 66,5 6,3 12,6 2,7 103,2 8,4 19,8 16,2 0,0
2.5.14 1019,3 1012,0 1014,5 7,6 87,8 5,6 6,7 3,9 103,2 2,4 13,3 30,2 0,0
3.5.14 1023,9 1019,2 1021,3 4,3 79,9 0,8 2,9 5,9 103,7 1,8 9,1 29,1 0,5
4.5.14 1024,2 1021,4 1023,0 6,3 59,1 -2,3 6,0 2,4 103,7 -3,1 14,8 19,4 0,0
5.5.14 1022,4 1017,7 1020,0 9,0 52,1 -2,3 8,8 2,3 103,7 0,1 18,5 29,8 0,0
6.5.14 1018,5 1013,5 1016,1 13,0 49,1 1,1 12,6 3,5 103,7 3,3 21,2 36,0 0,0
7.5.14 1016,4 1012,1 1013,9 13,4 56,5 4,6 12,5 5,3 104,7 9,1 17,6 33,8 1,0
8.5.14 1017,8 1014,5 1016,6 11,9 63,8 4,7 11,1 4,9 105,2 7,2 17,0 39,9 0,5
9.5.14 1016,1 1013,0 1014,8 12,8 73,6 7,8 11,8 6,5 107,7 10,7 18,1 38,8 2,5
10.5.14 1018,5 1010,5 1015,7 11,1 69,6 5,2 10,3 5,2 108,9 5,9 16,1 36,7 1,2
11.5.14 1010,5 1007,8 1008,8 10,8 66,2 4,3 9,3 7,5 110,2 8,2 14,6 39,9 1,3
12.5.14 1013,8 1009,9 1012,3 9,4 62,0 2,2 7,8 7,3 111,2 6,8 13,9 35,2 1,0
13.5.14 1019,5 1013,7 1015,8 8,7 72,3 3,5 8,0 3,8 111,5 5,5 14,8 24,4 0,3
14.5.14 1028,5 1019,6 1024,4 8,2 64,6 1,3 7,3 5,2 113,9 3,5 14,2 34,9 2,4
15.5.14 1031,2 1028,5 1030,3 7,9 69,8 2,2 7,0 5,2 113,9 3,4 13,3 24,1 0,0
16.5.14 1030,7 1024,7 1028,0 10,5 58,1 1,8 8,6 8,3 113,9 6,3 15,5 35,2 0,0
17.5.14 1024,7 1018,5 1021,8 11,4 56,1 2,8 10,4 5,5 113,9 7,9 14,7 20,5 0,0
18.5.14 1018,4 1014,1 1016,1 9,7 79,9 6,3 9,4 2,7 117,1 8,0 12,5 17,2 3,2
19.5.14 1014,9 1012,9 1013,5 15,1 62,8 6,5 15,0 1,3 117,1 7,9 23,4 25,5 0,0
20.5.14 1018,1 1014,8 1016,6 18,5 50,1 5,6 18,3 2,1 117,1 8,8 27,3 23,4 0,0
21.5.14 1019,1 1015,2 1017,5 19,3 46,1 5,1 19,1 2,8 117,1 10,1 26,7 31,3 0,0
22.5.14 1015,1 1010,9 1012,9 22,5 43,2 7,8 22,4 2,8 117,1 14,5 31,5 15,1 0,0
23.5.14 1015,6 1011,0 1013,3 17,2 58,9 8,8 16,8 3,8 117,3 12,7 22,1 33,1 0,2
24.5.14 1020,8 1015,1 1016,9 15,0 71,5 9,4 14,9 1,1 130,5 10,2 22,7 9,3 13,2
25.5.14 1023,7 1020,8 1022,3 15,6 55,4 4,2 15,4 3,3 130,5 4,9 24,4 23,7 0,0
26.5.14 1021,8 1013,8 1018,0 17,3 50,2 5,3 16,9 4,1 130,5 9,1 24,2 34,2 0,0
27.5.14 1013,9 1011,0 1011,9 15,6 74,5 10,9 15,4 3,1 136,7 13,1 20,3 18,0 6,2
28.5.14 1014,8 1010,2 1012,0 12,4 90,9 10,9 12,2 3,4 140,9 10,5 13,3 18,3 4,2
29.5.14 1020,2 1014,7 1016,6 8,9 89,6 7,2 8,6 3,3 145,6 5,9 10,6 19,4 4,7
30.5.14 1023,6 1020,1 1021,8 9,7 68,8 3,4 9,3 3,1 146,0 5,2 17,1 25,5 0,4
31.5.14 1023,8 1021,3 1022,7 12,8 53,6 1,2 12,7 2,5 146,0 2,4 21,8 19,0 0,0
1.6.14 1022,5 1021,0 1021,9 12,5 51,8 0,8 12,3 2,8 146,0 3,2 21,4 20,5 0,0
2.6.14 1022,2 1019,2 1020,7 13,5 53,0 2,7 13,3 2,2 146,0 4,8 22,0 16,5 0,0
3.6.14 1019,7 1015,8 1017,7 15,3 48,7 2,6 15,2 2,2 146,0 6,8 23,3 23,0 0,0
4.6.14 1016,3 1010,2 1012,9 15,9 52,9 5,4 15,8 1,6 149,8 8,5 22,4 20,4 3,8
5.6.14 1020,2 1012,2 1016,1 14,3 55,2 4,0 13,4 5,9 152,6 10,5 19,2 37,8 2,8
6.6.14 1021,8 1019,4 1020,7 16,3 44,7 1,8 16,2 1,8 152,6 5,4 26,2 28,8 0,0
7.6.14 1021,7 1019,7 1020,5 21,2 39,9 4,9 21,2 2,5 152,6 10,2 31,4 36,0 0,0
8.6.14 1023,6 1021,7 1022,7 24,1 39,6 7,1 24,1 1,7 152,6 12,7 33,3 33,4 0,0
9.6.14 1023,0 1020,4 1022,1 25,4 38,2 8,0 25,3 1,2 152,6 14,4 34,6 19,4 0,0
10.6.14 1023,9 1020,6 1022,0 26,1 39,4 10,0 26,0 2,5 152,6 17,5 35,5 33,1 0,0
11.6.14 1027,7 1022,5 1024,8 22,5 53,5 12,2 22,3 3,4 153,0 16,6 29,6 28,0 0,4
12.6.14 1028,2 1024,9 1027,1 20,3 53,3 9,3 20,1 3,6 153,0 15,1 27,0 19,8 0,0
13.6.14 1026,1 1020,0 1022,7 17,5 47,9 4,4 17,2 3,8 153,0 8,5 25,4 28,8 0,0
14.6.14 1021,7 1019,0 1019,9 14,3 53,1 4,1 14,0 3,5 153,0 10,2 20,1 22,6 0,0
15.6.14 1023,2 1021,7 1022,4 14,3 55,2 3,9 14,0 3,1 153,0 7,5 21,1 20,8 0,0
16.6.14 1023,3 1019,5 1021,5 14,2 48,3 1,5 14,0 2,1 153,0 4,2 22,8 19,0 0,0
17.6.14 1022,2 1020,7 1021,3 16,0 53,3 5,6 15,7 3,7 153,5 10,7 22,5 25,5 0,5
18.6.14 1022,6 1020,3 1021,6 16,4 47,9 3,3 16,3 2,0 153,5 5,8 25,1 19,9 0,0
19.6.14 1021,5 1017,0 1019,1 16,5 53,8 6,0 16,1 3,9 156,2 10,0 23,2 27,0 2,7
20.6.14 1019,2 1016,8 1017,8 13,0 65,0 6,2 12,3 4,8 159,4 10,3 18,0 27,3 3,2
21.6.14 1020,3 1019,0 1019,6 13,1 53,9 3,4 12,8 3,5 159,4 8,1 17,4 22,6 0,0
22.6.14 1022,7 1019,7 1020,7 13,9 54,9 4,3 13,6 2,9 159,4 7,4 21,1 25,2 0,0
23.6.14 1023,8 1020,5 1022,5 14,0 51,5 2,7 13,8 2,3 159,4 4,2 22,1 20,5 0,0
24.6.14 1021,4 1016,7 1019,3 15,4 49,5 3,4 15,2 2,4 159,6 5,9 24,0 26,6 0,2
25.6.14 1017,0 1012,9 1014,6 12,8 73,1 7,9 12,4 3,2 162,4 10,7 18,7 25,2 2,8
26.6.14 1018,4 1016,7 1017,6 13,7 59,3 5,0 13,6 1,7 162,4 9,1 19,5 20,8 0,0
27.6.14 1019,3 1017,3 1018,5 17,3 46,3 2,9 17,1 2,7 162,4 8,3 25,1 32,4 0,0
28.6.14 1018,8 1012,2 1016,1 17,7 54,7 7,5 17,5 2,8 163,4 12,5 25,5 31,6 1,0
29.6.14 1013,3 1009,5 1011,1 15,8 75,9 11,4 15,2 4,9 164,9 13,7 19,1 49,6 1,5
30.6.14 1019,5 1013,2 1015,6 14,7 68,4 8,3 14,4 3,2 169,0 11,1 20,4 30,2 4,1
1.7.14 1021,1 1019,5 1020,3 14,2 56,4 2,9 14,0 1,9 169,0 4,9 22,0 16,5 0,0
2.7.14 1025,2 1021,0 1022,3 16,0 45,6 1,9 15,9 2,3 169,0 4,8 25,2 21,2 0,0
3.7.14 1026,9 1023,9 1025,8 18,1 40,7 1,9 17,8 4,3 169,0 5,7 27,1 46,0 0,0
4.7.14 1024,2 1012,1 1018,9 21,2 36,5 3,7 21,0 3,1 169,0 11,5 29,5 32,4 0,0
5.7.14 1016,2 1011,0 1012,8 21,7 47,3 9,5 21,3 5,2 169,4 18,5 26,7 37,8 0,4
6.7.14 1017,2 1013,9 1015,8 23,3 48,3 10,3 23,1 3,1 169,4 17,2 30,7 33,8 0,0
7.7.14 1020,6 1014,6 1018,0 22,1 50,3 10,7 21,7 4,0 169,6 17,1 29,3 32,4 0,2
8.7.14 1016,2 1008,4 1010,8 19,2 76,3 14,6 18,6 5,1 176,8 15,3 25,7 29,8 7,2
9.7.14 1010,8 1005,4 1007,9 13,1 86,7 10,8 12,4 5,0 196,6 11,8 15,8 36,3 19,8
10.7.14 1013,0 1009,9 1011,0 12,1 92,1 10,8 11,9 2,6 200,1 11,1 13,4 24,4 3,5
11.7.14 1015,4 1013,1 1014,2 16,6 72,0 10,4 16,4 2,7 200,7 8,5 26,8 37,8 0,6
12.7.14 1014,9 1013,6 1014,4 17,5 58,7 7,3 17,3 3,3 200,7 12,2 24,1 21,6 0,0
13.7.14 1014,8 1012,4 1013,4 14,7 70,6 9,2 14,5 2,7 201,3 8,1 20,6 32,0 0,6
14.7.14 1019,7 1012,9 1015,6 18,3 67,6 11,8 18,0 3,5 201,7 14,9 24,3 30,9 0,4
15.7.14 1024,0 1019,7 1022,4 20,0 55,6 9,0 19,9 2,6 201,7 11,1 27,8 27,0 0,0
16.7.14 1025,0 1023,7 1024,4 20,5 52,0 8,8 20,4 1,8 201,7 11,4 28,4 16,2 0,0
17.7.14 1025,2 1023,3 1024,4 22,0 52,5 10,1 22,0 1,1 201,7 13,9 31,1 21,2 0,0
18.7.14 1024,6 1021,3 1023,2 22,6 45,1 7,5 22,6 0,9 201,7 11,8 33,1 23,7 0,0
19.7.14 1022,0 1017,2 1019,8 24,2 40,1 7,6 24,2 1,5 201,7 14,4 32,0 25,9 0,0
20.7.14 1017,4 1012,6 1014,9 26,1 37,4 8,5 26,1 1,4 201,7 15,8 35,1 19,8 0,0
21.7.14 1014,6 1012,2 1013,4 22,4 62,5 14,6 22,2 3,5 203,9 20,2 27,1 23,4 2,2
22.7.14 1019,9 1014,1 1016,7 22,5 60,1 12,3 22,1 6,2 205,2 17,3 28,7 58,6 1,3
23.7.14 1020,8 1018,2 1019,7 21,4 47,9 7,9 21,1 4,8 205,2 12,7 29,1 37,0 0,0
24.7.14 1018,6 1016,3 1017,0 18,4 66,7 11,7 18,2 2,5 205,2 12,4 25,9 24,4 0,0
25.7.14 1017,3 1015,8 1016,5 18,5 70,9 12,6 18,3 2,5 205,2 12,9 26,8 26,9 0,0
26.7.14 1017,3 1015,4 1016,1 20,4 65,0 12,8 21,5 2,9 205,2 12,4 28,1 15,1 0,0
27.7.14 1018,6 1016,4 1017,2 19,2 76,9 14,6 19,2 0,5 208,5 13,3 30,6 12,9 3,3
28.7.14 1018,2 1013,1 1015,6 20,5 77,0 15,9 20,4 1,6 208,5 13,9 28,9 13,6 0,0
29.7.14 1013,2 1010,0 1011,5 18,6 84,8 15,9 18,6 0,7 226,9 14,9 25,8 10,0 18,4
30.7.14 1015,3 1009,7 1011,3 19,0 86,2 16,5 19,0 0,6 231,0 15,4 25,4 12,9 4,1
31.7.14 1018,7 1014,9 1017,2 19,0 73,2 13,6 18,9 1,0 231,0 15,1 24,7 20,5 0,0
1.8.14 1018,8 1014,3 1016,5 18,6 65,6 11,2 18,5 2,0 231,0 9,8 26,1 21,8 0,0
2.8.14 1015,2 1011,4 1013,1 21,5 70,4 15,3 21,3 2,8 232,1 14,6 29,3 32,4 1,1
3.8.14 1016,5 1012,2 1014,1 19,8 82,6 16,5 19,7 1,6 265,2 15,4 26,8 26,8 33,1
4.8.14 1018,9 1015,5 1017,5 18,2 85,7 15,6 18,2 0,9 267,7 14,6 25,4 18,7 2,5
5.8.14 1021,5 1018,4 1019,9 16,9 84,2 14,0 16,8 0,7 270,3 12,3 22,9 14,7 2,6
6.8.14 1021,8 1018,1 1020,3 19,1 71,2 13,0 19,1 0,5 270,3 13,1 26,3 12,8 0,0
7.8.14 1018,9 1017,3 1018,0 18,4 72,6 12,9 18,3 1,2 273,1 14,1 25,3 26,6 2,8
8.8.14 1019,1 1014,7 1017,6 19,7 67,8 12,5 19,7 0,5 273,1 10,9 28,1 8,6 0,0
9.8.14 1018,4 1012,3 1014,9 20,9 62,9 13,2 20,5 5,4 273,1 15,3 27,3 46,4 0,0
10.8.14 1018,8 1011,0 1014,9 20,2 67,6 13,3 19,8 4,2 275,0 10,8 28,7 33,8 1,9
11.8.14 1017,7 1011,4 1015,5 19,0 66,7 12,0 18,6 4,0 277,1 14,1 23,2 33,4 2,1
12.8.14 1017,8 1014,5 1016,4 16,4 64,6 9,2 16,2 2,4 277,1 9,9 22,8 31,6 0,0
13.8.14 1015,4 1007,0 1010,6 14,5 78,3 10,6 14,4 2,0 279,5 10,6 17,9 20,5 2,4
14.8.14 1015,3 1008,4 1013,5 14,6 79,8 10,9 14,1 3,7 281,0 10,5 20,2 27,7 1,5
15.8.14 1016,2 1014,3 1014,9 12,0 88,1 10,0 11,9 1,1 286,6 8,6 17,3 21,9 5,6
16.8.14 1020,5 1015,8 1018,3 13,0 86,6 10,7 12,7 2,2 300,5 11,2 18,0 31,3 13,9
17.8.14 1020,7 1013,0 1016,9 14,3 79,3 10,4 14,1 2,2 300,5 11,3 19,8 29,1 0,0
18.8.14 1013,3 1010,4 1011,5 14,5 71,1 9,2 13,9 4,5 300,9 10,6 17,9 39,2 0,4
19.8.14 1016,3 1013,0 1014,0 14,6 70,6 8,8 14,2 2,9 301,1 8,8 20,4 31,2 0,2
20.8.14 1018,8 1016,0 1017,7 13,7 64,3 6,4 13,5 2,4 301,1 7,6 19,9 30,6 0,0
21.8.14 1019,4 1017,7 1018,5 13,3 65,2 6,1 13,0 2,7 301,1 6,5 20,6 29,1 0,0
22.8.14 1019,1 1015,8 1017,5 12,9 64,9 5,7 12,6 1,8 301,1 6,6 19,2 26,2 0,0
23.8.14 1016,8 1015,3 1015,9 13,0 72,3 7,8 12,7 2,2 301,4 7,1 19,5 31,3 0,3
24.8.14 1021,3 1016,4 1019,0 11,5 78,9 7,7 11,0 3,1 302,7 7,2 16,1 35,6 1,3
25.8.14 1021,3 1014,5 1018,6 11,4 71,2 5,8 11,3 1,5 302,7 3,2 19,8 29,8 0,0
26.8.14 1014,5 1006,9 1009,6 11,6 90,2 10,0 11,6 0,9 308,0 9,9 14,7 14,4 5,3
27.8.14 1020,6 1010,2 1015,6 14,2 74,2 8,9 14,1 1,0 317,3 8,7 20,9 16,9 9,3
28.8.14 1021,5 1019,4 1020,5 14,2 66,7 7,1 14,1 1,1 317,3 3,6 24,6 18,3 0,0
29.8.14 1020,0 1018,1 1018,9 17,0 72,4 11,9 16,9 2,1 317,3 12,7 22,4 31,6 0,0
30.8.14 1021,2 1019,2 1020,0 16,2 74,4 11,1 15,9 2,4 317,3 10,8 22,9 26,6 0,0
31.8.14 1019,7 1014,3 1016,6 13,2 90,0 11,6 13,2 0,8 338,4 11,2 14,9 18,3 21,1
1.9.14 1021,6 1016,3 1019,3 12,4 87,7 10,3 12,4 0,9 338,4 10,4 16,3 13,6 0,0
2.9.14 1024,0 1020,3 1021,6 13,4 89,5 11,6 13,3 2,0 338,4 11,6 18,1 21,2 0,0
3.9.14 1024,5 1022,5 1023,5 12,7 90,2 11,1 12,4 3,4 338,4 10,4 16,3 24,1 0,0
4.9.14 1023,4 1020,0 1021,6 16,3 82,8 13,1 16,0 3,1 338,4 10,7 23,4 27,7 0,0
5.9.14 1020,4 1016,2 1018,2 18,5 78,8 14,3 18,4 2,1 338,4 11,5 25,7 21,2 0,0
6.9.14 1017,1 1015,4 1016,3 18,9 77,3 14,4 18,8 1,5 338,4 13,8 25,6 20,8 0,0
7.9.14 1018,6 1016,0 1017,0 19,2 72,8 13,6 19,2 1,5 338,4 11,8 28,4 22,3 0,0
8.9.14 1020,1 1017,9 1019,0 18,2 80,4 14,5 18,2 0,9 338,4 14,4 24,9 10,8 0,0
9.9.14 1021,1 1019,5 1020,3 17,0 73,3 11,7 17,0 0,7 338,4 13,2 23,4 15,4 0,0
10.9.14 1020,9 1018,2 1019,5 12,9 79,3 9,3 12,9 0,3 338,4 10,1 18,3 18,0 0,0
11.9.14 1019,0 1016,3 1017,6 11,0 88,6 9,2 11,0 0,6 344,6 6,5 14,9 15,4 6,2
12.9.14 1019,5 1014,5 1016,6 12,6 94,5 11,7 12,0 4,2 358,6 10,8 14,6 33,8 14,0
13.9.14 1022,8 1019,5 1021,3 14,4 95,4 13,7 14,3 1,5 359,8 13,0 15,6 19,0 1,2
14.9.14 1022,7 1020,0 1020,9 13,9 96,0 13,2 13,8 1,5 359,8 13,2 14,5 19,8 0,0
15.9.14 1020,6 1019,2 1019,8 16,2 87,0 13,8 16,1 0,9 359,8 13,2 21,9 16,9 0,0
16.9.14 1020,3 1018,7 1019,5 16,4 77,5 11,9 16,1 3,2 359,8 11,2 23,7 29,5 0,0
17.9.14 1019,2 1016,4 1017,7 16,0 77,2 11,7 15,7 3,2 359,8 11,6 21,9 25,5 0,0
18.9.14 1017,2 1015,8 1016,5 15,2 81,4 11,9 14,8 3,5 359,8 11,4 19,9 20,8 0,0
19.9.14 1017,5 1015,8 1016,6 17,1 80,6 13,5 17,0 1,8 362,6 12,4 23,5 19,4 2,8
20.9.14 1017,7 1016,5 1017,2 15,7 87,5 13,5 15,6 1,6 370,1 11,2 23,7 23,4 7,5
21.9.14 1017,6 1014,2 1015,9 13,3 93,6 12,2 13,3 0,8 380,1 9,9 16,1 25,5 10,0
22.9.14 1018,6 1014,8 1016,6 9,5 86,4 7,3 9,0 4,3 381,4 7,4 13,5 33,1 1,3
23.9.14 1022,2 1018,3 1020,4 10,3 77,3 6,1 9,9 2,3 382,8 7,5 15,9 23,0 1,4
24.9.14 1021,0 1013,0 1016,5 8,7 78,3 4,8 8,7 1,3 382,8 2,3 15,7 16,9 0,0
25.9.14 1023,1 1014,0 1018,1 10,8 84,4 8,1 10,3 3,1 382,8 8,6 13,6 26,6 0,0
26.9.14 1026,5 1022,7 1024,2 11,1 90,3 9,5 10,7 3,1 384,1 9,9 12,9 22,6 1,3
27.9.14 1030,3 1026,5 1028,8 14,6 80,8 11,0 14,6 0,9 384,1 8,6 21,8 14,4 0,0
28.9.14 1030,4 1026,6 1028,5 12,2 77,7 8,0 12,2 1,3 384,1 3,6 20,9 16,5 0,0
29.9.14 1027,7 1026,2 1026,9 15,7 75,0 10,6 15,6 1,3 384,1 7,0 26,8 23,0 0,0
30.9.14 1028,0 1026,2 1027,0 15,0 84,8 12,3 15,0 0,7 384,1 11,2 20,3 16,7 0,0
1.10.14 1029,5 1027,3 1028,2 15,5 87,8 13,3 15,5 0,4 385,2 12,8 20,4 12,9 1,1
2.10.14 1031,3 1029,5 1030,3 13,7 81,6 10,3 13,7 0,4 385,2 8,2 23,6 19,0 0,0
3.10.14 1030,7 1026,8 1028,6 11,7 81,7 8,4 11,6 1,2 385,2 5,4 20,1 16,9 0,0
4.10.14 1026,8 1020,3 1023,0 9,9 84,1 7,1 9,4 3,5 385,2 4,9 15,8 26,2 0,0
5.10.14 1020,8 1019,1 1019,7 10,3 81,5 7,1 10,2 1,5 385,2 4,9 16,4 25,5 0,0
6.10.14 1019,5 1014,3 1017,0 9,4 86,5 7,2 9,0 2,5 385,2 5,3 13,9 30,6 0,0
7.10.14 1014,3 1011,3 1012,5 11,7 86,8 9,5 10,9 4,5 385,5 8,8 15,6 27,3 0,3
8.10.14 1015,9 1012,6 1014,4 14,4 82,7 11,4 13,4 5,9 385,5 12,1 16,3 29,5 0,0
9.10.14 1015,5 1011,6 1013,0 18,0 70,0 11,9 17,9 2,9 385,5 12,3 28,5 30,2 0,0
10.10.14 1020,0 1015,4 1018,3 14,4 87,9 12,4 14,4 0,4 385,5 11,8 17,5 10,4 0,0
11.10.14 1018,6 1015,8 1016,8 14,3 89,1 12,5 14,3 1,1 388,6 12,8 16,5 17,2 3,1
12.10.14 1019,0 1014,1 1017,4 14,3 83,0 11,2 14,2 1,7 388,6 7,9 20,3 15,4 0,0
13.10.14 1014,4 1011,6 1012,6 15,1 84,4 12,4 14,9 3,0 388,6 12,6 20,9 18,7 0,0
14.10.14 1014,0 1011,2 1012,6 14,6 84,4 11,8 14,6 0,9 390,1 11,2 21,6 22,3 1,5
15.10.14 1012,8 1010,5 1011,4 12,7 87,8 10,7 12,7 0,9 395,4 10,3 21,2 22,6 5,3
16.10.14 1013,1 1009,6 1010,9 12,3 90,4 10,7 12,1 1,4 397,8 9,1 16,0 21,2 2,4
17.10.14 1022,6 1011,0 1015,9 12,0 92,4 10,8 11,8 1,6 400,4 9,6 14,6 23,4 2,6
18.10.14 1027,0 1022,5 1025,3 12,5 87,6 10,4 12,3 1,9 400,4 10,2 16,5 18,3 0,0
19.10.14 1026,5 1020,3 1023,3 13,8 85,5 11,1 13,6 2,2 400,7 8,4 23,6 26,6 0,3
20.10.14 1020,6 1017,7 1019,5 14,3 82,3 11,3 13,8 4,0 401,8 9,4 19,6 33,8 1,1
21.10.14 1017,9 1002,8 1011,9 9,0 85,3 6,5 8,4 3,3 402,7 3,5 14,9 52,5 0,9
22.10.14 1013,8 1004,6 1010,7 5,2 90,2 3,7 2,1 10,5 423,7 2,2 7,8 43,2 21,0
23.10.14 1026,2 1014,0 1021,6 7,1 94,8 6,3 6,8 2,4 433,4 6,1 7,8 24,8 9,7
24.10.14 1026,7 1023,9 1025,4 8,0 87,2 5,8 8,0 0,9 433,4 3,1 14,6 22,4 0,0
25.10.14 1026,2 1022,3 1023,8 6,4 90,4 4,9 6,2 2,6 435,6 4,6 9,0 22,3 2,2
26.10.14 1030,3 1026,1 1028,7 7,9 92,3 6,7 7,9 1,0 435,6 6,1 10,3 9,7 0,0
27.10.14 1030,8 1027,7 1029,5 6,4 91,6 5,1 5,5 5,1 435,6 4,6 7,9 21,9 0,0
28.10.14 1027,7 1021,1 1024,2 5,7 81,5 2,5 4,9 4,4 435,6 1,2 14,4 22,6 0,0
29.10.14 1022,7 1019,2 1020,7 5,6 85,8 3,4 5,4 2,4 435,6 0,9 8,8 22,4 0,0
30.10.14 1029,2 1022,8 1026,2 7,4 85,3 5,1 7,4 0,8 435,6 4,8 10,8 12,2 0,0
31.10.14 1029,7 1027,7 1028,6 10,7 87,1 8,5 10,6 1,0 435,6 8,2 16,9 17,2 0,0
1.11.14 1028,4 1024,0 1026,0 10,7 82,5 7,4 10,6 0,9 435,6 5,1 21,8 15,4 0,0
2.11.14 1024,1 1016,8 1020,6 9,4 84,8 6,7 9,1 2,3 435,6 3,3 20,3 20,1 0,0
3.11.14 1016,8 1006,1 1012,0 9,1 85,9 6,8 8,1 5,3 435,6 5,6 16,4 22,6 0,0
4.11.14 1006,0 998,0 1001,6 7,8 84,8 5,3 6,5 6,0 435,6 4,5 12,1 33,1 0,0
5.11.14 1008,4 997,4 1002,6 8,7 86,7 6,5 8,6 1,3 443,4 5,9 11,3 14,7 7,8
6.11.14 1016,0 1008,1 1013,0 6,6 92,6 5,5 6,6 0,6 443,4 5,2 7,8 16,9 0,0
7.11.14 1015,7 1010,4 1012,9 3,9 93,2 2,8 3,6 1,5 443,4 0,9 6,6 17,2 0,0
8.11.14 1018,0 1013,7 1016,3 7,1 84,3 4,4 6,9 1,9 443,4 0,8 14,9 21,2 0,0
9.11.14 1015,4 1012,0 1013,5 4,9 91,8 3,6 4,0 4,1 443,4 -0,1 7,8 21,9 0,0
10.11.14 1016,0 1012,6 1014,5 6,4 92,9 5,2 6,1 2,0 443,4 4,9 8,4 24,4 0,0
11.11.14 1016,2 1009,2 1012,8 8,0 91,3 6,7 6,4 7,0 443,4 5,6 10,8 34,9 0,0
12.11.14 1009,6 1006,3 1007,6 10,0 89,6 8,3 9,2 4,5 443,4 8,7 12,7 25,5 0,0
13.11.14 1016,7 1009,5 1014,0 8,0 92,9 6,9 8,0 0,2 444,4 6,6 8,9 5,4 1,0
14.11.14 1016,8 1011,5 1014,0 9,5 87,1 7,4 8,4 5,3 444,4 7,9 13,1 28,8 0,0
15.11.14 1011,5 1003,9 1007,5 9,4 85,3 7,0 8,3 5,6 444,4 7,5 12,9 31,6 0,0
16.11.14 1008,3 1001,0 1004,2 7,8 88,9 6,1 7,0 4,9 445,4 5,4 9,2 30,2 1,0
17.11.14 1010,5 1008,2 1009,3 5,7 89,3 4,0 4,5 5,2 445,4 2,2 8,2 30,9 0,0
18.11.14 1010,1 1007,0 1008,1 6,6 90,7 5,2 6,4 2,8 477,5 5,0 7,4 21,2 32,1
19.11.14 1025,7 1010,1 1018,1 3,9 94,4 3,0 3,9 1,0 483,4 3,3 4,9 20,1 5,9
20.11.14 1027,5 1025,5 1026,7 4,7 92,2 3,5 4,7 0,4 483,4 4,0 6,6 15,8 0,0
21.11.14 1027,2 1023,8 1025,4 3,6 89,3 1,9 3,4 1,1 483,4 0,6 4,3 16,9 0,0
22.11.14 1025,0 1022,8 1024,1 2,4 88,8 0,7 2,0 3,5 483,4 -0,7 6,7 20,8 0,0
23.11.14 1026,6 1023,6 1025,1 1,8 92,8 0,7 0,5 5,2 483,4 0,1 4,9 29,5 0,0
24.11.14 1027,9 1021,5 1024,3 4,1 93,6 3,1 3,7 2,3 483,7 2,1 6,1 15,4 0,3
25.11.14 1028,2 1024,7 1026,8 3,0 87,3 0,9 2,2 3,2 483,9 -0,7 8,4 27,0 0,2
26.11.14 1024,8 1017,5 1020,6 1,6 82,7 -1,0 -1,1 8,4 483,9 0,4 4,5 34,2 0,0
27.11.14 1017,6 1012,9 1014,5 1,1 86,2 -0,9 -1,0 7,3 483,9 0,7 1,5 33,1 0,0
28.11.14 1017,1 1014,0 1015,2 0,1 92,8 -0,9 -3,3 9,5 483,9 -0,4 0,7 33,8 0,0
29.11.14 1018,6 1016,9 1017,6 0,2 93,6 -0,7 -2,8 9,0 483,9 -0,2 0,7 33,2 0,0
30.11.14 1017,9 1013,2 1015,3 0,9 93,2 -0,0 -1,7 8,1 483,9 0,4 1,6 30,9 0,0
1.12.14 1013,2 1010,7 1011,7 0,6 90,8 -0,7 -2,2 8,7 483,9 -1,1 1,3 34,2 0,0
2.12.14 1015,8 1011,2 1013,0 -1,5 92,4 -2,5 -1,8 2,3 484,1 -2,4 0,5 15,4 0,2
3.12.14 1019,9 1015,8 1018,2 -2,4 93,1 -3,3 -2,5 1,0 484,1 -2,8 -1,8 16,5 0,0
4.12.14 1019,5 1015,4 1016,9 1,1 94,9 0,3 0,7 1,9 497,1 -2,1 3,4 24,1 13,0
5.12.14 1019,7 1016,4 1018,1 2,7 95,4 2,0 2,7 0,1 506,3 1,8 3,3 13,3 9,2
6.12.14 1023,7 1019,5 1021,6 2,0 94,4 1,1 2,0 0,3 508,7 1,3 3,1 11,8 2,4
7.12.14 1023,6 1018,6 1021,3 1,9 92,2 0,7 1,8 1,1 509,3 1,0 3,3 27,7 0,6
8.12.14 1019,9 1017,7 1018,9 0,7 90,0 -0,7 0,3 2,3 509,5 -2,2 3,6 19,8 0,2
9.12.14 1030,2 1019,9 1025,8 -2,8 93,8 -3,6 -2,8 0,4 509,5 -4,7 -1,1 11,8 0,0
10.12.14 1029,3 1018,5 1022,7 -0,9 90,6 -2,2 -1,9 4,5 509,5 -2,7 0,6 29,5 0,0
11.12.14 1018,7 1010,3 1013,7 2,1 94,1 1,1 1,4 2,9 519,9 0,6 3,3 34,9 10,4
12.12.14 1013,5 1005,3 1009,0 5,0 85,3 2,6 2,7 7,9 519,9 2,3 7,6 36,3 0,0
13.12.14 1014,7 1006,0 1010,8 7,0 84,5 4,5 6,6 2,7 523,1 4,9 8,4 28,4 3,2
14.12.14 1018,1 1014,2 1016,1 6,2 93,2 5,1 6,1 0,9 531,0 5,4 6,9 16,2 7,9
15.12.14 1018,0 1015,7 1016,4 6,5 87,7 4,5 6,1 2,9 531,6 4,4 9,5 29,5 0,6
16.12.14 1016,3 1012,3 1013,7 4,0 91,5 2,7 3,8 1,7 533,9 2,2 4,8 21,2 2,3
17.12.14 1014,5 1007,5 1011,6 1,4 91,1 0,1 0,8 3,1 536,4 0,3 2,4 29,5 2,5
18.12.14 1015,4 1011,5 1014,1 6,5 95,6 5,8 6,0 3,1 538,7 2,4 9,9 34,5 2,3
19.12.14 1016,5 1013,0 1015,2 8,2 92,8 7,0 6,0 8,6 542,2 6,2 9,9 48,6 3,5
20.12.14 1021,2 1016,8 1019,3 2,6 87,9 0,8 0,0 8,5 543,0 1,3 6,1 54,0 0,8
21.12.14 1029,6 1021,5 1026,6 2,4 87,6 0,6 -1,1 10,1 543,0 1,2 3,6 36,0 0,0
22.12.14 1024,8 1019,7 1021,6 4,1 91,7 2,8 1,4 9,0 543,0 3,3 5,1 52,9 0,0
23.12.14 1021,7 1020,0 1020,7 6,3 90,2 4,8 4,9 6,2 543,0 5,2 6,8 41,0 0,0
24.12.14 1020,7 1017,3 1018,5 4,4 89,0 2,7 2,8 6,3 543,4 2,2 6,3 36,0 0,4
25.12.14 1023,0 1017,5 1020,7 2,7 89,0 1,0 1,3 5,0 545,0 0,7 5,8 36,7 1,6
26.12.14 1026,7 1023,1 1025,2 -0,9 86,1 -2,9 -1,2 1,5 545,0 -6,7 1,1 23,4 0,0
27.12.14 1023,5 1002,4 1009,9 -5,4 84,4 -7,6 -7,5 5,8 545,0 -7,9 -3,1 36,0 0,0
28.12.14 1027,9 1004,3 1016,5 -7,3 85,8 -9,3 -8,2 3,6 545,0 -10,0 -4,7 31,6 0,0
29.12.14 1032,9 1022,8 1026,7 -5,4 90,5 -6,6 -6,9 4,7 545,0 -7,6 -3,2 39,6 0,0
30.12.14 1033,0 1029,4 1030,9 -4,4 91,3 -5,6 -4,5 1,0 545,0 -7,5 0,1 29,1 0,0
31.12.14 1033,8 1030,4 1031,9 -0,1 93,2 -1,0 -0,3 1,3 545,6 -0,9 0,8 17,2 0,6